Latest Weather Observations for Trangie

IDN60801

Issued at 12:02 pm EST Wednesday 5 August 2015 (issued every 30 minutes, with the page automatically refreshed every 10 minutes)

About weather observations | Map of weather stations | Latest weather observations for NSW | Other Formats
Station Details ID: 051049 Name: TRANGIE RESEARCH STATION AWS Lat: -31.99 Lon: 147.95 Height: 215.0 m
Data from the previous 72 hours. | See also: Recent months at Trangie
Date/Time
EST
Temp
°C
App
Temp
°C
Dew
Point
Rel
Hum
%
Delta-T
°C
Wind Press
QNH
hPa
Press
MSL
hPa
Rain
since 9 am
mm
Dir
 
Spd
km/h
Gust
km/h
Spd
kts
Gust
kts
05/12:00pm 10.8 5.7 4.3 64 2.9 W 20 26 11 14 1018.7 1018.8 -
05/11:30am 10.6 4.6 3.4 61 3.2 W 24 32 13 17 1019.2 1019.3 0.0
05/11:00am 11.1 6.1 3.4 59 3.4 W 19 28 10 15 1019.6 1019.8 0.0
05/10:30am 10.7 6.1 3.5 61 3.2 WNW 17 26 9 14 1019.9 1020.1 0.0
05/10:00am 9.8 5.1 2.9 62 3.0 WNW 17 20 9 11 1020.1 1020.3 0.0
05/09:30am 9.9 5.2 3.4 64 2.9 WNW 17 26 9 14 1020.4 1020.6 0.0
05/09:00am 8.7 3.9 2.5 65 2.6 W 17 24 9 13 1020.6 1020.8 0.0
05/08:30am 7.5 3.5 2.6 71 2.1 W 13 17 7 9 1020.7 1020.9 0.0
05/08:00am 6.5 2.4 2.2 74 1.8 W 13 15 7 8 1020.5 1020.7 0.0
05/07:30am 4.8 1.0 1.6 80 1.3 W 11 15 6 8 1020.5 1020.7 0.0
05/07:00am 5.9 1.0 2.0 76 1.6 WSW 17 24 9 13 1020.5 1020.7 0.0
05/06:30am 5.8 2.1 2.4 79 1.4 WSW 11 15 6 8 1020.5 1020.7 0.0
05/06:00am 6.3 2.2 2.4 76 1.6 WSW 13 20 7 11 1020.5 1020.7 0.0
05/05:30am 5.8 2.3 3.5 85 1.0 WSW 11 13 6 7 1020.6 1020.8 0.0
05/05:00am 5.9 2.8 3.4 84 1.1 WSW 9 11 5 6 1020.4 1020.6 0.0
05/04:30am 5.9 3.2 3.6 85 1.0 WSW 7 11 4 6 1020.6 1020.8 0.0
05/04:00am 5.9 2.8 3.6 85 1.0 WSW 9 11 5 6 1020.8 1021.0 0.0
05/03:30am 6.1 2.6 3.3 82 1.2 WSW 11 13 6 7 1020.9 1021.1 0.0
05/03:00am 6.0 2.9 3.8 86 0.9 WSW 9 11 5 6 1021.1 1021.3 0.0
05/02:30am 6.2 2.8 4.0 86 0.9 WSW 11 13 6 7 1021.5 1021.7 0.0
05/02:00am 6.5 3.0 3.7 82 1.2 WSW 11 15 6 8 1021.6 1021.8 0.0
05/01:30am 6.6 3.1 3.6 81 1.3 WSW 11 17 6 9 1021.7 1021.9 0.0
05/01:00am 6.6 2.7 3.6 81 1.3 SW 13 15 7 8 1021.8 1022.0 0.0
05/12:30am 6.6 3.1 3.6 81 1.3 WSW 11 15 6 8 1021.9 1022.1 0.0
05/12:00am 6.3 2.9 4.1 86 0.9 WSW 11 17 6 9 1022.0 1022.2 0.0
 
Date/Time
EST
Temp
°C
App
Temp
°C
Dew
Point
Rel
Hum
%
Delta-T
°C
Wind Press
QNH
hPa
Press
MSL
hPa
Rain
since 9 am
mm
Dir
 
Spd
km/h
Gust
km/h
Spd
kts
Gust
kts
04/11:30pm 6.0 3.4 4.2 88 0.8 WSW 7 9 4 5 1022.1 1022.3 0.0
04/11:00pm 6.1 3.6 3.9 86 0.9 W 6 7 3 4 1022.3 1022.5 0.0
04/10:30pm 5.8 4.5 4.1 89 0.7 CALM 0 0 0 0 1022.4 1022.6 0.0
04/10:00pm 6.0 4.0 4.3 89 0.7 WNW 4 6 2 3 1022.5 1022.7 0.0
04/09:30pm 6.1 4.1 4.6 90 0.7 WNW 4 7 2 4 1022.6 1022.8 0.0
04/09:00pm 6.1 4.7 3.8 85 1.0 CALM 0 0 0 0 1022.8 1023.0 0.0
04/08:30pm 6.1 4.5 4.4 89 0.7 WNW 2 7 1 4 1022.8 1023.0 0.0
04/08:00pm 6.6 5.0 2.5 75 1.7 CALM 0 0 0 0 1022.6 1022.8 0.0
04/07:30pm 6.7 4.8 2.6 75 1.7 SE 2 7 1 4 1022.6 1022.8 0.0
04/07:00pm 6.4 4.8 2.7 77 1.5 CALM 0 0 0 0 1022.6 1022.8 0.0
04/06:30pm 6.9 4.2 2.4 73 1.9 SE 6 7 3 4 1022.5 1022.7 0.0
04/06:00pm 7.6 5.5 1.9 67 2.4 S 2 7 1 4 1022.5 1022.7 0.0
04/05:30pm 8.2 5.3 1.6 63 2.7 S 6 7 3 4 1022.4 1022.6 0.0
04/05:00pm 8.3 4.9 1.9 64 2.7 N 9 11 5 6 1022.4 1022.6 0.0
04/04:30pm 8.8 6.1 2.6 65 2.7 WSW 6 9 3 5 1022.2 1022.4 0.0
04/04:00pm 9.0 5.7 2.6 64 2.7 NW 9 13 5 7 1022.4 1022.6 0.0
04/03:30pm 9.3 5.6 2.2 61 3.0 NNW 11 15 6 8 1022.5 1022.7 0.0
04/03:00pm 8.7 4.3 2.5 65 2.6 N 15 22 8 12 1022.8 1023.0 0.0
04/02:30pm 9.0 4.9 2.3 63 2.8 NNW 13 17 7 9 1022.9 1023.1 0.0
04/02:00pm 8.7 4.0 1.1 59 3.1 N 15 20 8 11 1022.9 1023.1 0.0
04/01:30pm 9.1 5.1 3.1 66 2.6 NNW 13 17 7 9 1023.4 1023.6 0.0
04/01:00pm 8.7 4.2 2.1 63 2.8 NW 15 22 8 12 1023.5 1023.7 0.0
04/12:30pm 9.0 4.8 1.4 59 3.2 NNE 13 17 7 9 1023.9 1024.1 0.0
04/12:00pm 9.2 5.0 1.9 60 3.1 NW 13 20 7 11 1024.6 1024.8 0.0
04/11:30am 9.2 4.6 1.4 58 3.3 NNW 15 20 8 11 1025.2 1025.4 0.0
04/11:00am 9.0 5.0 3.0 66 2.6 SE 13 20 7 11 1025.3 1025.5 0.0
04/10:30am 8.8 5.9 4.4 74 2.0 SSE 9 15 5 8 1025.5 1025.7 0.0
04/10:00am 8.3 5.2 5.6 83 1.2 SSE 11 17 6 9 1025.5 1025.7 0.0
04/09:30am 7.7 5.1 6.0 89 0.8 SSE 9 15 5 8 1025.3 1025.5 0.0
04/09:00am 7.0 4.1 6.3 95 0.3 SSE 11 17 6 9 1025.1 1025.3 0.2
04/08:30am 6.6 4.1 6.5 99 0.0 SSE 9 13 5 7 1024.8 1025.0 0.2
04/08:00am 6.2 4.2 6.1 99 0.0 SE 6 9 3 5 1024.6 1024.8 0.2
04/07:30am 5.7 3.6 5.6 99 0.0 NNW 6 9 3 5 1024.6 1024.8 0.2
04/07:00am 5.4 3.2 5.3 99 0.0 S 6 9 3 5 1024.1 1024.3 0.2
04/06:30am 5.1 2.8 5.0 99 0.0 N 6 7 3 4 1023.9 1024.1 0.2
04/06:00am 4.8 2.3 4.7 99 0.0 NNW 7 9 4 5 1023.7 1023.9 0.2
04/05:30am 4.7 1.8 4.6 99 0.0 NNW 9 11 5 6 1023.5 1023.7 0.2
04/05:00am 3.6 0.9 3.5 99 0.0 N 7 9 4 5 1023.4 1023.6 0.0
04/04:30am 2.4 0.0 2.3 99 0.0 SW 4 9 2 5 1023.2 1023.3 0.0
04/04:00am 1.9 -0.9 1.8 99 0.0 SW 6 9 3 5 1023.1 1023.2 0.0
04/03:30am 1.7 -1.2 1.6 99 0.0 W 6 7 3 4 1023.3 1023.5 0.0
04/03:00am 1.0 -2.2 0.9 99 0.0 W 7 13 4 7 1023.4 1023.6 0.0
04/02:30am 2.0 0.3 1.9 99 0.0 CALM 0 0 0 0 1023.4 1023.6 0.0
04/02:00am 3.1 1.2 3.0 99 0.0 N 2 6 1 3 1023.5 1023.7 0.0
04/01:30am 4.1 1.6 4.0 99 0.0 SW 6 7 3 4 1023.8 1024.0 0.0
04/01:00am 3.7 2.3 3.6 99 0.0 CALM 0 0 0 0 1023.9 1024.1 0.0
04/12:30am 5.3 3.5 5.2 99 0.0 SW 4 6 2 3 1023.9 1024.1 0.0
04/12:00am 5.9 3.6 5.8 99 0.0 WSW 7 9 4 5 1024.1 1024.3 0.0
 
Date/Time
EST
Temp
°C
App
Temp
°C
Dew
Point
Rel
Hum
%
Delta-T
°C
Wind Press
QNH
hPa
Press
MSL
hPa
Rain
since 9 am
mm
Dir
 
Spd
km/h
Gust
km/h
Spd
kts
Gust
kts
03/11:30pm 6.8 4.3 6.7 99 0.0 SW 9 11 5 6 1024.2 1024.4 0.0
03/11:00pm 7.2 5.2 7.1 99 0.0 WSW 7 9 4 5 1024.3 1024.5 0.0
03/10:30pm 8.0 5.8 7.7 98 0.1 NNW 9 13 5 7 1024.3 1024.5 0.0
03/10:00pm 8.6 4.3 7.7 94 0.4 N 20 30 11 16 1024.6 1024.8 0.0
03/09:30pm 9.8 5.2 6.3 79 1.6 NW 20 28 11 15 1024.2 1024.4 0.0
03/09:00pm 9.6 6.7 6.5 81 1.5 SW 11 15 6 8 1023.9 1024.1 0.0
03/08:30pm 9.8 7.2 6.3 79 1.6 SW 9 13 5 7 1023.7 1023.9 0.0
03/08:00pm 10.7 7.0 6.1 73 2.2 NNW 15 20 8 11 1023.5 1023.7 0.0
03/07:30pm 10.1 7.9 6.1 76 1.9 SW 7 9 4 5 1023.2 1023.3 0.0
03/07:00pm 10.2 7.5 5.8 74 2.0 WSW 9 11 5 6 1022.8 1023.0 0.0
03/06:30pm 11.3 6.9 4.7 64 3.0 WNW 17 22 9 12 1022.4 1022.6 0.0
03/06:00pm 11.0 7.1 5.3 68 2.6 SW 15 20 8 11 1022.1 1022.3 0.0
03/05:30pm 11.4 7.2 5.7 68 2.7 W 17 24 9 13 1021.7 1021.9 0.0
03/05:00pm 11.9 7.8 6.2 68 2.7 NNW 17 22 9 12 1021.4 1021.6 0.0
03/04:30pm 12.2 7.7 6.0 66 2.9 WSW 19 24 10 13 1021.1 1021.3 0.0
03/04:00pm 12.4 7.9 6.2 66 3.0 SW 19 26 10 14 1020.9 1021.1 0.0
03/03:30pm 12.7 8.0 6.1 64 3.2 WSW 20 26 11 14 1020.8 1021.0 0.0
03/03:00pm 13.4 8.0 6.3 62 3.4 WSW 24 33 13 18 1020.6 1020.8 0.0
03/02:30pm 13.4 7.1 5.6 59 3.7 WSW 28 39 15 21 1020.5 1020.7 0.0
03/02:00pm 13.9 8.0 6.0 59 3.8 WSW 26 37 14 20 1020.6 1020.8 0.0
03/01:30pm 13.2 7.5 5.1 58 3.8 WSW 24 32 13 17 1020.7 1020.9 0.0
03/01:00pm 13.1 7.9 5.3 59 3.7 WNW 22 30 12 16 1020.9 1021.1 0.0
03/12:30pm 12.7 6.8 5.8 63 3.3 WNW 26 37 14 20 1021.1 1021.3 0.0
03/12:00pm 11.9 6.4 5.8 66 2.9 W 24 35 13 19 1021.6 1021.8 0.0
03/11:30am 13.1 6.7 6.9 66 3.0 WSW 30 41 16 22 1021.8 1022.0 0.0
03/11:00am 12.2 7.6 6.7 69 2.6 W 20 32 11 17 1021.9 1022.1 0.0
03/10:30am 11.9 7.4 7.0 72 2.4 WSW 20 26 11 14 1022.3 1022.5 0.0
03/10:00am 10.7 6.2 7.0 78 1.8 WSW 20 30 11 16 1022.5 1022.7 0.0
03/09:30am 9.1 5.5 6.9 86 1.0 WSW 15 20 8 11 1022.2 1022.4 0.0
03/09:00am 7.2 4.3 6.5 95 0.3 W 11 15 6 8 1022.1 1022.3 0.0
03/08:30am 4.9 2.0 4.8 99 0.0 W 9 13 5 7 1022.0 1022.2 0.0
03/08:00am 2.6 -0.3 2.5 99 0.0 W 7 7 4 4 1021.7 1021.9 0.0
03/07:30am 1.6 -1.3 1.5 99 0.0 W 6 7 3 4 1021.4 1021.6 0.0
03/07:00am 0.2 -2.9 0.1 99 0.0 WSW 6 7 3 4 1021.3 1021.5 0.0
03/06:30am 0.5 -2.8 0.4 99 0.0 WSW 7 9 4 5 1021.0 1021.2 0.0
03/06:00am 0.4 -3.2 0.3 99 0.0 SW 9 11 5 6 1020.8 1021.0 0.0
03/05:30am 0.2 -3.1 0.1 99 0.0 SW 7 7 4 4 1020.6 1020.8 0.0
03/05:00am 1.2 -0.6 1.1 99 0.0 CALM 0 0 0 0 1020.4 1020.6 0.0
03/04:30am 2.1 -0.9 2.0 99 0.0 SSW 7 9 4 5 1020.3 1020.5 0.0
03/04:00am 1.2 -2.3 1.1 99 0.0 SW 9 11 5 6 1020.2 1020.4 0.0
03/03:30am 1.1 -2.1 1.0 99 0.0 SW 7 9 4 5 1020.4 1020.6 0.0
03/03:00am 1.3 -2.2 1.2 99 0.0 SW 9 11 5 6 1020.5 1020.7 0.0
03/02:30am 2.4 -0.6 2.3 99 0.0 N 7 9 4 5 1020.5 1020.7 0.0
03/02:00am 2.7 -0.3 2.3 97 0.2 N 7 9 4 5 1020.7 1020.9 0.0
03/01:30am 3.8 0.7 3.5 98 0.1 N 9 11 5 6 1020.7 1020.9 0.0
03/01:00am 4.0 0.9 3.4 96 0.2 N 9 13 5 7 1020.7 1020.9 0.0
03/12:30am 5.9 2.4 5.3 96 0.3 N 13 17 7 9 1020.7 1020.9 0.0
03/12:00am 6.5 3.2 6.2 98 0.1 N 13 19 7 10 1020.8 1021.0 0.0
 
Date/Time
EST
Temp
°C
App
Temp
°C
Dew
Point
Rel
Hum
%
Delta-T
°C
Wind Press
QNH
hPa
Press
MSL
hPa
Rain
since 9 am
mm
Dir
 
Spd
km/h
Gust
km/h
Spd
kts
Gust
kts
02/11:30pm 6.3 3.3 6.2 99 0.0 NNW 11 15 6 8 1020.7 1020.9 0.0
02/11:00pm 5.8 2.7 5.4 97 0.2 N 11 13 6 7 1020.6 1020.8 0.0
02/10:30pm 7.0 4.0 6.1 94 0.4 N 11 13 6 7 1020.5 1020.7 0.0
02/10:00pm 8.4 5.7 7.3 93 0.5 N 11 15 6 8 1020.4 1020.6 0.0
02/09:30pm 9.0 6.0 7.5 90 0.7 N 13 17 7 9 1020.1 1020.3 0.0
02/09:00pm 9.7 5.9 7.6 87 1.0 N 17 24 9 13 1019.9 1020.1 0.0
02/08:30pm 10.2 6.5 7.8 85 1.2 NNW 17 24 9 13 1019.5 1019.7 0.0
02/08:00pm 11.0 7.0 8.4 84 1.3 NNW 19 28 10 15 1019.1 1019.2 0.0
02/07:30pm 11.7 7.2 8.7 82 1.5 NW 22 30 12 16 1018.6 1018.7 0.0
02/07:00pm 12.0 7.5 8.5 79 1.7 NNW 22 30 12 16 1018.3 1018.4 0.0
02/06:30pm 12.6 7.7 8.5 76 2.1 NNW 24 32 13 17 1017.8 1018.0 0.0
02/06:00pm 13.3 8.6 9.2 76 2.1 NW 24 35 13 19 1017.1 1017.3 0.0
02/05:30pm 15.0 10.0 9.6 70 2.8 NNW 26 39 14 21 1016.0 1016.2 0.0
02/05:00pm 16.9 11.8 10.5 66 3.4 NW 28 41 15 22 1015.2 1015.3 0.0
02/04:30pm 19.1 14.2 9.9 55 5.0 WSW 26 37 14 20 1014.3 1014.4 0.0
02/04:00pm 22.2 20.3 11.9 52 5.8 WNW 13 19 7 10 1013.7 1013.8 0.0
02/03:30pm 22.1 19.1 11.8 52 5.8 NNW 19 28 10 15 1013.5 1013.6 0.0
02/03:00pm 22.7 19.9 11.4 49 6.4 NW 17 26 9 14 1013.6 1013.7 0.0
02/02:30pm 22.5 18.4 11.3 49 6.3 NW 24 32 13 17 1013.4 1013.5 0.0
02/02:00pm 22.5 18.7 11.3 49 6.3 NW 22 32 12 17 1013.6 1013.7 0.0
02/01:30pm 22.1 19.2 12.9 56 5.3 NNW 20 26 11 14 1013.8 1013.9 0.0
02/01:00pm 21.0 16.8 11.1 53 5.5 NNW 24 32 13 17 1014.0 1014.1 0.0
02/12:30pm 19.9 15.6 10.6 55 5.1 NNW 24 32 13 17 1014.5 1014.6 0.0

Other Formats:

Comma delimited format used in spreadsheet applications
http://www.bom.gov.au/fwo/IDN60801/IDN60801.95710.axf

JavaScript Object Notation format (JSON) in row-major order
http://www.bom.gov.au/fwo/IDN60801/IDN60801.95710.json